Terminal Aerodrome Forecast
Issued by NWS Dodge City, KS

Home | Current Version | Previous Version | Graphics & Text | Print | Product List | Glossary Off
Versions: 1 2 3 4 5 6 7 8 9 10 11 12 13

000
FTUS43 KDDC 261720
TAFDDC
TAF
KDDC 261720Z 2618/2718 VRB03KT P6SM SKC
     FM270000 19005KT P6SM SKC
     FM270900 25006KT P6SM SKC
     FM271300 28006KT P6SM SKC=

USA.gov is the U.S. government's official web portal to all federal, state and local government web resources and services.